createdAt,value
2024-01-06T00:01:35.746Z,60.09
2024-01-06T00:04:04.255Z,59.60
2024-01-06T00:06:32.576Z,59.96
2024-01-06T00:09:00.848Z,58.64
2024-01-06T00:11:29.092Z,58.44
2024-01-06T00:13:57.253Z,59.84
2024-01-06T00:16:28.098Z,60.26
2024-01-06T00:18:57.782Z,58.87
2024-01-06T00:21:26.242Z,59.42
2024-01-06T00:23:54.423Z,59.33
2024-01-06T00:26:22.787Z,58.70
2024-01-06T00:28:51.100Z,59.72
2024-01-06T00:31:19.676Z,59.15
2024-01-06T00:33:48.587Z,58.76
2024-01-06T00:36:17.242Z,58.44
2024-01-06T00:38:45.458Z,58.20
2024-01-06T00:41:13.586Z,59.28
2024-01-06T00:43:41.678Z,59.61
2024-01-06T00:46:09.976Z,59.06
2024-01-06T00:48:38.260Z,58.47
2024-01-06T00:51:07.192Z,59.20
2024-01-06T00:53:35.735Z,59.67
2024-01-06T00:56:04.029Z,59.80
2024-01-06T00:58:32.130Z,59.79
2024-01-06T01:01:00.512Z,59.49
2024-01-06T01:03:29.009Z,59.29
2024-01-06T01:05:57.859Z,59.98
2024-01-06T01:08:26.359Z,60.13
2024-01-06T01:10:54.458Z,59.23
2024-01-06T01:13:22.601Z,58.55
2024-01-06T01:15:50.993Z,58.48
2024-01-06T01:18:19.426Z,57.85
2024-01-06T01:20:47.744Z,58.42
2024-01-06T01:23:16.031Z,58.03
2024-01-06T01:25:44.086Z,58.36
2024-01-06T01:28:12.294Z,58.10
2024-01-06T01:30:40.535Z,58.77
2024-01-06T01:33:09.447Z,59.63
2024-01-06T01:35:37.738Z,59.19
2024-01-06T01:38:05.912Z,58.84
2024-01-06T01:40:33.962Z,58.94
2024-01-06T01:43:02.124Z,58.64
2024-01-06T01:45:30.287Z,58.70
2024-01-06T01:47:58.767Z,58.49
2024-01-06T01:50:28.959Z,58.59
2024-01-06T01:52:57.245Z,58.91
2024-01-06T01:55:25.924Z,59.19
2024-01-06T01:57:54.260Z,59.53
2024-01-06T02:00:24.183Z,59.14
2024-01-06T02:02:54.101Z,58.81
2024-01-06T02:05:22.418Z,58.58
2024-01-06T02:07:52.307Z,58.21
2024-01-06T02:10:20.736Z,57.97
2024-01-06T02:12:49.961Z,57.76
2024-01-06T02:15:19.398Z,57.84
2024-01-06T02:17:47.576Z,57.82
2024-01-06T02:20:17.490Z,57.65
2024-01-06T02:22:45.672Z,57.44
2024-01-06T02:25:14.660Z,57.28
2024-01-06T02:27:42.763Z,58.22
2024-01-06T02:30:11.440Z,57.66
2024-01-06T02:32:39.819Z,57.85
2024-01-06T02:35:09.516Z,57.73
2024-01-06T02:37:37.731Z,57.71
2024-01-06T02:40:06.389Z,58.29
2024-01-06T02:42:34.687Z,57.63
2024-01-06T02:45:02.857Z,58.20
2024-01-06T02:47:30.994Z,58.13
2024-01-06T02:49:59.243Z,57.49
2024-01-06T02:52:27.353Z,57.29
2024-01-06T02:54:55.435Z,57.85
2024-01-06T02:57:23.610Z,57.93
2024-01-06T02:59:51.763Z,57.33
2024-01-06T03:02:19.990Z,57.25
2024-01-06T03:04:48.216Z,57.97
2024-01-06T03:07:16.429Z,57.67
2024-01-06T03:09:44.840Z,57.84
2024-01-06T03:12:13.149Z,57.97
2024-01-06T03:14:41.523Z,57.50
2024-01-06T03:17:11.744Z,57.54
2024-01-06T03:19:40.832Z,57.68
2024-01-06T03:22:09.097Z,57.22
2024-01-06T03:24:37.209Z,57.00
2024-01-06T03:27:05.451Z,57.58
2024-01-06T03:29:33.501Z,57.02
2024-01-06T03:32:01.604Z,56.83
2024-01-06T03:34:29.864Z,56.63
2024-01-06T03:36:58.286Z,56.90
2024-01-06T03:39:26.527Z,56.86
2024-01-06T03:41:55.022Z,56.25
2024-01-06T03:44:23.336Z,56.21
2024-01-06T03:46:51.390Z,56.47
2024-01-06T03:49:21.961Z,56.59
2024-01-06T03:51:50.376Z,56.13
2024-01-06T03:54:19.174Z,56.24
2024-01-06T03:56:47.357Z,55.98
2024-01-06T03:59:15.505Z,55.62
2024-01-06T04:01:43.670Z,55.57
2024-01-06T04:04:12.006Z,55.42
2024-01-06T04:06:40.178Z,55.83
2024-01-06T04:09:08.457Z,55.81
2024-01-06T04:11:36.691Z,55.75
2024-01-06T04:14:05.004Z,55.77
2024-01-06T04:16:33.173Z,55.68
2024-01-06T04:19:01.366Z,55.85
2024-01-06T04:21:29.727Z,55.66
2024-01-06T04:23:57.964Z,55.90
2024-01-06T04:26:26.477Z,56.23
2024-01-06T04:28:54.692Z,56.50
2024-01-06T04:31:23.023Z,56.19
2024-01-06T04:33:51.317Z,56.31
2024-01-06T04:36:19.987Z,56.43
2024-01-06T04:38:48.137Z,56.13
2024-01-06T04:41:16.283Z,56.08
2024-01-06T04:43:44.591Z,55.93
2024-01-06T04:46:13.029Z,55.97
2024-01-06T04:48:42.609Z,55.98
2024-01-06T04:51:12.566Z,55.85
2024-01-06T04:53:41.189Z,55.90
2024-01-06T04:56:09.366Z,55.89
2024-01-06T04:58:37.598Z,55.90
2024-01-06T05:01:06.304Z,55.98
2024-01-06T05:03:34.578Z,55.63
2024-01-06T05:06:02.808Z,55.80
2024-01-06T05:08:32.285Z,55.75
2024-01-06T05:11:01.641Z,55.79
2024-01-06T05:13:29.755Z,55.97
2024-01-06T05:15:58.005Z,55.82
2024-01-06T05:18:26.484Z,55.80
2024-01-06T05:20:55.646Z,56.01
2024-01-06T05:23:24.011Z,56.02
2024-01-06T05:25:52.206Z,55.98
2024-01-06T05:28:20.416Z,56.36
2024-01-06T05:30:48.806Z,56.14
2024-01-06T05:33:18.034Z,56.24
2024-01-06T05:35:46.467Z,56.50
2024-01-06T05:38:14.792Z,56.51
2024-01-06T05:40:42.851Z,56.55
2024-01-06T05:43:11.115Z,56.46
2024-01-06T05:45:41.749Z,56.29
2024-01-06T05:48:11.570Z,56.53
2024-01-06T05:50:41.035Z,57.14
2024-01-06T05:53:09.622Z,57.18
2024-01-06T05:55:38.089Z,57.45
2024-01-06T05:58:06.350Z,56.93
2024-01-06T06:00:34.461Z,56.79
2024-01-06T06:03:02.665Z,56.97
2024-01-06T06:05:30.910Z,57.47
2024-01-06T06:07:59.027Z,56.78
2024-01-06T06:10:41.665Z,57.34
2024-01-06T06:13:12.829Z,57.45
2024-01-06T06:15:41.114Z,57.25
2024-01-06T06:18:10.289Z,57.19
2024-01-06T06:20:39.843Z,57.55
2024-01-06T06:23:08.681Z,57.53
2024-01-06T06:25:40.023Z,58.19
2024-01-06T06:28:08.143Z,58.11
2024-01-06T06:30:36.530Z,58.00
2024-01-06T06:33:05.077Z,58.24
2024-01-06T06:35:33.336Z,58.43
2024-01-06T06:38:01.555Z,58.45
2024-01-06T06:40:30.185Z,58.55
2024-01-06T06:42:58.567Z,57.98
2024-01-06T06:45:26.897Z,57.78
2024-01-06T06:47:55.094Z,57.75
2024-01-06T06:50:23.327Z,57.61
2024-01-06T06:52:51.886Z,57.65
2024-01-06T06:55:20.524Z,58.13
2024-01-06T06:57:48.773Z,57.89
2024-01-06T07:00:18.440Z,58.14
2024-01-06T07:02:47.047Z,58.20
2024-01-06T07:05:15.266Z,58.04
2024-01-06T07:07:47.817Z,58.34
2024-01-06T07:10:16.686Z,58.02
2024-01-06T07:12:44.866Z,58.05
2024-01-06T07:15:13.154Z,58.22
2024-01-06T07:17:41.333Z,58.50
2024-01-06T07:20:10.611Z,58.20
2024-01-06T07:22:39.094Z,58.26
2024-01-06T07:25:08.722Z,58.63
2024-01-06T07:27:37.054Z,59.11
2024-01-06T07:30:06.157Z,58.98
2024-01-06T07:32:34.426Z,58.71
2024-01-06T07:35:07.378Z,58.48
2024-01-06T07:37:36.390Z,57.93
2024-01-06T07:40:04.921Z,57.69
2024-01-06T07:42:33.188Z,57.63
2024-01-06T07:45:01.437Z,57.21
2024-01-06T07:47:29.700Z,57.14
2024-01-06T07:49:58.697Z,57.05
2024-01-06T07:52:27.077Z,56.83
2024-01-06T07:54:55.265Z,56.70
2024-01-06T07:57:23.593Z,56.83
2024-01-06T07:59:52.017Z,56.74
2024-01-06T08:02:20.250Z,56.54
2024-01-06T08:04:48.570Z,56.39
2024-01-06T08:07:16.761Z,56.16
2024-01-06T08:09:45.039Z,56.14
2024-01-06T08:12:13.472Z,55.93
2024-01-06T08:14:41.693Z,55.91
2024-01-06T08:17:09.845Z,55.72
2024-01-06T08:19:37.939Z,55.61
2024-01-06T08:22:06.145Z,55.42
2024-01-06T08:24:35.060Z,55.17
2024-01-06T08:27:03.415Z,55.17
2024-01-06T08:29:32.191Z,54.82
2024-01-06T08:32:00.503Z,54.58
2024-01-06T08:34:32.030Z,53.96
2024-01-06T08:37:01.579Z,53.57
2024-01-06T08:39:29.740Z,53.14
2024-01-06T08:42:00.856Z,53.00
2024-01-06T08:44:30.043Z,53.01
2024-01-06T08:46:58.284Z,52.30
2024-01-06T08:49:26.414Z,52.07
2024-01-06T08:51:54.776Z,51.83
2024-01-06T08:54:23.063Z,50.95
2024-01-06T08:56:51.310Z,51.41
2024-01-06T08:59:19.398Z,50.73
2024-01-06T09:01:50.292Z,50.31
2024-01-06T09:04:20.024Z,50.24
2024-01-06T09:06:48.382Z,49.57
2024-01-06T09:09:17.658Z,49.04
2024-01-06T09:11:45.735Z,48.72
2024-01-06T09:14:13.796Z,48.69
2024-01-06T09:16:41.999Z,48.04
2024-01-06T09:19:10.385Z,47.32
2024-01-06T09:21:38.844Z,46.97
2024-01-06T09:24:07.928Z,46.98
2024-01-06T09:26:36.958Z,46.83
2024-01-06T09:29:05.184Z,46.49
2024-01-06T09:31:34.067Z,46.80
2024-01-06T09:34:05.283Z,46.21
2024-01-06T09:36:33.541Z,46.50
2024-01-06T09:39:01.896Z,46.89
2024-01-06T09:41:30.427Z,46.99
2024-01-06T09:43:58.843Z,46.86
2024-01-06T09:46:30.374Z,46.89
2024-01-06T09:49:00.019Z,47.12
2024-01-06T09:51:30.109Z,47.51
2024-01-06T09:54:01.259Z,47.67
2024-01-06T09:56:31.370Z,47.07
2024-01-06T09:58:59.578Z,47.21
2024-01-06T10:01:27.997Z,47.42
2024-01-06T10:03:56.321Z,47.71
2024-01-06T10:06:24.502Z,47.85
2024-01-06T10:08:54.188Z,47.56
2024-01-06T10:11:25.390Z,47.87
2024-01-06T10:13:55.365Z,47.74
2024-01-06T10:16:23.947Z,47.80
2024-01-06T10:18:54.609Z,48.15
2024-01-06T10:21:23.965Z,47.84
2024-01-06T10:23:52.623Z,47.94
2024-01-06T10:26:20.911Z,47.53
2024-01-06T10:28:52.437Z,47.22
2024-01-06T10:31:20.973Z,47.47
2024-01-06T10:33:49.791Z,47.22
2024-01-06T10:36:19.043Z,47.64
2024-01-06T10:38:47.239Z,47.81
2024-01-06T10:41:17.804Z,47.45
2024-01-06T10:43:48.292Z,47.26
2024-01-06T10:46:19.756Z,46.81
2024-01-06T10:48:50.168Z,46.46
2024-01-06T10:51:20.465Z,46.46
2024-01-06T10:53:51.344Z,46.51
2024-01-06T10:56:20.443Z,47.02
2024-01-06T10:58:50.780Z,46.87
2024-01-06T11:01:28.046Z,46.36
2024-01-06T11:04:00.638Z,46.86
2024-01-06T11:06:29.370Z,46.74
2024-01-06T11:09:08.053Z,46.62
2024-01-06T11:11:38.369Z,45.96
2024-01-06T11:14:27.168Z,45.61
2024-01-06T11:16:56.180Z,46.30
2024-01-06T11:19:41.279Z,45.73
2024-01-06T11:22:32.794Z,45.03
2024-01-06T11:25:09.615Z,45.28
2024-01-06T11:27:38.142Z,44.16
2024-01-06T11:30:08.246Z,44.70
2024-01-06T11:32:40.479Z,45.10
2024-01-06T11:35:12.043Z,45.23
2024-01-06T11:37:43.635Z,45.28
2024-01-06T11:40:24.077Z,44.42
2024-01-06T11:42:58.313Z,43.43
2024-01-06T11:45:27.223Z,42.80
2024-01-06T11:48:01.479Z,42.58
2024-01-06T11:50:34.096Z,41.41
2024-01-06T11:53:05.360Z,42.07
2024-01-06T11:55:33.990Z,42.76
2024-01-06T11:58:04.892Z,42.65
2024-01-06T12:00:41.731Z,42.73
2024-01-06T12:03:10.546Z,42.63
2024-01-06T12:05:39.368Z,42.57
2024-01-06T12:08:08.994Z,42.55
2024-01-06T12:10:38.716Z,42.86
2024-01-06T12:13:12.241Z,42.47
2024-01-06T12:15:41.901Z,41.91
2024-01-06T12:18:10.416Z,42.08
2024-01-06T12:20:38.863Z,42.02
2024-01-06T12:23:08.278Z,42.25
2024-01-06T12:25:40.254Z,42.89
2024-01-06T12:28:09.983Z,42.68
2024-01-06T12:30:40.288Z,42.72
2024-01-06T12:33:08.873Z,42.30
2024-01-06T12:35:37.734Z,42.81
2024-01-06T12:38:08.558Z,42.63
2024-01-06T12:40:38.675Z,42.72
2024-01-06T12:43:07.337Z,42.74
2024-01-06T12:45:36.036Z,42.60
2024-01-06T12:48:04.764Z,42.93
2024-01-06T12:50:33.074Z,42.59
2024-01-06T12:53:01.302Z,42.36
2024-01-06T12:55:29.852Z,42.78
2024-01-06T12:57:58.287Z,42.40
2024-01-06T13:00:27.198Z,42.72
2024-01-06T13:02:55.379Z,42.41
2024-01-06T13:05:24.225Z,42.59
2024-01-06T13:07:55.555Z,42.96
2024-01-06T13:10:23.936Z,43.06
2024-01-06T13:12:53.835Z,42.90
2024-01-06T13:15:22.626Z,42.98
2024-01-06T13:17:53.098Z,42.74
2024-01-06T13:20:21.936Z,42.86
2024-01-06T13:22:52.508Z,43.10
2024-01-06T13:25:21.346Z,43.14
2024-01-06T13:27:50.143Z,43.06
2024-01-06T13:30:19.368Z,43.16
2024-01-06T13:32:49.975Z,43.39
2024-01-06T13:35:18.580Z,43.55
2024-01-06T13:37:50.193Z,43.84
2024-01-06T13:40:22.382Z,44.06
2024-01-06T13:42:54.220Z,44.22
2024-01-06T13:45:23.048Z,44.21
2024-01-06T13:47:51.211Z,44.34
2024-01-06T13:50:20.547Z,44.60
2024-01-06T13:52:49.593Z,44.99
2024-01-06T13:55:17.936Z,45.30
2024-01-06T13:57:46.287Z,45.80
2024-01-06T14:00:21.558Z,45.77
2024-01-06T14:02:58.245Z,45.96
2024-01-06T14:05:30.599Z,46.36
2024-01-06T14:07:58.707Z,46.41
2024-01-06T14:10:27.706Z,46.76
2024-01-06T14:12:56.248Z,47.04
2024-01-06T14:15:24.753Z,47.33
2024-01-06T14:17:53.615Z,46.96
2024-01-06T14:20:21.834Z,47.20
2024-01-06T14:22:50.646Z,47.47
2024-01-06T14:25:19.936Z,47.83
2024-01-06T14:27:50.314Z,48.07
2024-01-06T14:30:21.364Z,48.13
2024-01-06T14:32:49.956Z,48.76
2024-01-06T14:35:18.312Z,48.82
2024-01-06T14:37:46.938Z,48.08
2024-01-06T14:40:15.278Z,47.94
2024-01-06T14:42:44.004Z,48.02
2024-01-06T14:45:13.048Z,48.15
2024-01-06T14:47:41.782Z,48.35
2024-01-06T14:50:10.157Z,48.52
2024-01-06T14:52:38.286Z,48.37
2024-01-06T14:55:07.146Z,48.56
2024-01-06T14:57:35.559Z,48.39
2024-01-06T15:00:04.301Z,49.00
2024-01-06T15:02:32.613Z,48.85
2024-01-06T15:05:01.236Z,49.07
2024-01-06T15:07:32.766Z,48.81
2024-01-06T15:10:05.328Z,48.95
2024-01-06T15:12:33.837Z,49.10
2024-01-06T15:15:02.320Z,49.43
2024-01-06T15:17:30.482Z,49.53
2024-01-06T15:19:58.646Z,49.41
2024-01-06T15:22:29.963Z,49.54
2024-01-06T15:24:58.929Z,49.53
2024-01-06T15:27:29.159Z,49.69
2024-01-06T15:29:57.684Z,49.66
2024-01-06T15:32:25.859Z,49.54
2024-01-06T15:34:54.358Z,49.34
2024-01-06T15:37:22.560Z,49.08
2024-01-06T15:39:50.799Z,49.00
2024-01-06T15:42:19.011Z,48.86
2024-01-06T15:44:47.192Z,48.66
2024-01-06T15:47:15.609Z,48.65
2024-01-06T15:49:43.760Z,48.75
2024-01-06T15:52:12.197Z,49.11
2024-01-06T15:54:40.486Z,49.12
2024-01-06T15:57:10.332Z,49.08
2024-01-06T15:59:38.503Z,49.04
2024-01-06T16:02:06.557Z,48.85
2024-01-06T16:04:34.685Z,48.96
2024-01-06T16:07:03.772Z,49.10
2024-01-06T16:09:31.902Z,49.24
2024-01-06T16:12:00.096Z,49.18
2024-01-06T16:14:31.493Z,49.08
2024-01-06T16:17:05.050Z,49.21
2024-01-06T16:19:34.143Z,49.27
2024-01-06T16:22:14.538Z,49.44
2024-01-06T16:24:46.273Z,49.78
2024-01-06T16:27:15.488Z,49.68
2024-01-06T16:29:44.331Z,49.62
2024-01-06T16:32:12.520Z,50.04
2024-01-06T16:34:43.880Z,50.31
2024-01-06T16:37:14.157Z,50.55
2024-01-06T16:39:49.329Z,50.57
2024-01-06T16:42:17.769Z,50.18
2024-01-06T16:44:45.887Z,50.36
2024-01-06T16:47:16.770Z,50.30
2024-01-06T16:49:44.991Z,50.22
2024-01-06T16:52:13.358Z,50.37
2024-01-06T16:54:41.444Z,50.48
2024-01-06T16:57:09.722Z,50.19
2024-01-06T16:59:38.309Z,50.95
2024-01-06T17:02:07.185Z,50.95
2024-01-06T17:04:36.454Z,50.87
2024-01-06T17:07:05.779Z,50.96
2024-01-06T17:09:34.364Z,51.11
2024-01-06T17:12:03.146Z,51.48
2024-01-06T17:14:33.134Z,51.35
2024-01-06T17:17:01.311Z,51.65
2024-01-06T17:19:29.689Z,51.80
2024-01-06T17:21:58.154Z,51.72
2024-01-06T17:24:26.587Z,51.82
2024-01-06T17:26:54.995Z,52.21
2024-01-06T17:29:26.384Z,52.69
2024-01-06T17:31:56.692Z,52.46
2024-01-06T17:34:25.377Z,52.51
2024-01-06T17:36:55.792Z,52.57
2024-01-06T17:39:23.953Z,52.73
2024-01-06T17:41:59.152Z,53.17
2024-01-06T17:44:29.041Z,52.96
2024-01-06T17:46:58.065Z,52.84
2024-01-06T17:49:26.622Z,52.34
2024-01-06T17:51:55.022Z,52.45
2024-01-06T17:54:26.019Z,52.69
2024-01-06T17:56:55.597Z,52.38
2024-01-06T17:59:23.676Z,52.30
2024-01-06T18:01:52.191Z,52.01
2024-01-06T18:04:20.646Z,52.16
2024-01-06T18:06:49.800Z,51.75
2024-01-06T18:09:22.117Z,51.64
2024-01-06T18:11:54.089Z,51.52
2024-01-06T18:14:22.216Z,51.75
2024-01-06T18:16:54.113Z,51.70
2024-01-06T18:19:23.228Z,51.73
2024-01-06T18:21:54.134Z,51.76
2024-01-06T18:24:23.267Z,52.28
2024-01-06T18:26:52.244Z,52.34
2024-01-06T18:29:22.825Z,52.55
2024-01-06T18:31:51.407Z,53.01
2024-01-06T18:34:19.972Z,52.84
2024-01-06T18:36:48.413Z,53.34
2024-01-06T18:39:18.677Z,53.40
2024-01-06T18:41:47.469Z,53.88
2024-01-06T18:44:22.082Z,53.80
2024-01-06T18:46:50.399Z,54.02
2024-01-06T18:49:20.470Z,53.56
2024-01-06T18:51:51.242Z,53.61
2024-01-06T18:54:26.905Z,53.87
2024-01-06T18:56:59.678Z,53.99
2024-01-06T18:59:27.882Z,53.93
2024-01-06T19:01:57.436Z,53.96
2024-01-06T19:04:25.817Z,54.22
2024-01-06T19:06:54.242Z,54.39
2024-01-06T19:09:22.463Z,54.51
2024-01-06T19:11:50.721Z,54.36
2024-01-06T19:14:18.946Z,54.32
2024-01-06T19:16:47.713Z,54.56
2024-01-06T19:19:17.346Z,54.50
2024-01-06T19:21:46.853Z,54.58
2024-01-06T19:24:23.817Z,54.53
2024-01-06T19:26:56.728Z,55.21
2024-01-06T19:29:27.208Z,55.11
2024-01-06T19:31:55.769Z,55.05
2024-01-06T19:34:24.194Z,55.09
2024-01-06T19:36:52.709Z,55.10
2024-01-06T19:39:20.928Z,55.13
2024-01-06T19:41:49.137Z,55.23
2024-01-06T19:44:18.356Z,55.37
2024-01-06T19:46:46.595Z,55.41
2024-01-06T19:49:14.838Z,55.88
2024-01-06T19:51:43.175Z,55.57
2024-01-06T19:54:13.460Z,55.84
2024-01-06T19:56:42.815Z,56.55
2024-01-06T19:59:12.128Z,56.73
2024-01-06T20:01:40.282Z,56.84
2024-01-06T20:04:08.833Z,56.47
2024-01-06T20:06:37.137Z,56.53
2024-01-06T20:09:07.784Z,56.50
2024-01-06T20:11:35.855Z,56.81
2024-01-06T20:14:04.156Z,57.12
2024-01-06T20:16:32.391Z,57.31
2024-01-06T20:19:00.637Z,57.66
2024-01-06T20:21:28.972Z,58.20
2024-01-06T20:23:57.169Z,58.38
2024-01-06T20:26:27.245Z,57.95
2024-01-06T20:28:55.991Z,58.37
2024-01-06T20:31:24.354Z,58.47
2024-01-06T20:33:53.356Z,58.11
2024-01-06T20:36:21.817Z,58.74
2024-01-06T20:38:53.032Z,58.40
2024-01-06T20:41:22.369Z,58.42
2024-01-06T20:43:50.537Z,59.24
2024-01-06T20:46:19.966Z,59.12
2024-01-06T20:48:48.867Z,58.74
2024-01-06T20:51:18.593Z,59.11
2024-01-06T20:53:48.644Z,59.64
2024-01-06T20:56:18.057Z,60.17
2024-01-06T20:58:46.400Z,60.26
2024-01-06T21:01:14.690Z,60.24
2024-01-06T21:03:43.289Z,60.05
2024-01-06T21:06:11.960Z,60.42
2024-01-06T21:08:40.142Z,61.02
2024-01-06T21:11:10.594Z,60.63
2024-01-06T21:13:38.787Z,60.07
2024-01-06T21:16:07.102Z,60.45
2024-01-06T21:18:37.812Z,60.39
2024-01-06T21:21:06.426Z,60.40
2024-01-06T21:23:40.669Z,60.54
2024-01-06T21:26:15.909Z,60.42
2024-01-06T21:28:43.992Z,60.30
2024-01-06T21:31:12.296Z,60.15
2024-01-06T21:33:40.638Z,60.26
2024-01-06T21:36:09.010Z,60.79
2024-01-06T21:38:37.305Z,61.88
2024-01-06T21:41:05.464Z,61.35
2024-01-06T21:43:33.583Z,60.59
2024-01-06T21:46:01.944Z,60.59
2024-01-06T21:48:31.097Z,60.62
2024-01-06T21:50:59.521Z,60.98
2024-01-06T21:53:27.680Z,60.63
2024-01-06T21:55:55.988Z,60.58
2024-01-06T21:58:24.122Z,60.86
2024-01-06T22:00:52.691Z,61.20
2024-01-06T22:03:21.051Z,60.95
2024-01-06T22:05:49.588Z,60.81
2024-01-06T22:08:17.999Z,60.44
2024-01-06T22:10:46.071Z,60.08
2024-01-06T22:13:15.732Z,60.07
2024-01-06T22:15:44.141Z,59.87
2024-01-06T22:18:12.807Z,59.63
2024-01-06T22:20:40.990Z,59.56
2024-01-06T22:23:09.093Z,59.29
2024-01-06T22:25:37.300Z,59.55
2024-01-06T22:28:07.618Z,59.27
2024-01-06T22:30:37.442Z,59.16
2024-01-06T22:33:06.046Z,59.64
2024-01-06T22:35:34.284Z,59.35
2024-01-06T22:38:02.424Z,59.44
2024-01-06T22:40:30.682Z,59.82
2024-01-06T22:42:58.835Z,59.80
2024-01-06T22:45:29.310Z,59.63
2024-01-06T22:47:58.667Z,59.41
2024-01-06T22:50:27.093Z,59.98
2024-01-06T22:52:55.275Z,60.87
2024-01-06T22:55:24.181Z,60.33
2024-01-06T22:57:52.480Z,60.18
2024-01-06T23:00:29.280Z,60.13
2024-01-06T23:02:57.853Z,60.17
2024-01-06T23:05:26.067Z,60.60
2024-01-06T23:07:54.905Z,60.75
2024-01-06T23:10:23.178Z,60.23
2024-01-06T23:12:51.531Z,60.75
2024-01-06T23:15:19.985Z,61.25
2024-01-06T23:17:48.318Z,61.10
2024-01-06T23:20:17.183Z,61.43
2024-01-06T23:22:45.382Z,61.61
2024-01-06T23:25:14.028Z,61.22
2024-01-06T23:27:42.281Z,61.26
2024-01-06T23:30:11.540Z,60.97
2024-01-06T23:32:39.863Z,61.19
2024-01-06T23:35:08.448Z,61.15
2024-01-06T23:37:40.226Z,61.06
2024-01-06T23:40:11.041Z,61.21
2024-01-06T23:42:39.262Z,61.41
2024-01-06T23:45:07.912Z,61.01
2024-01-06T23:47:36.208Z,61.34
2024-01-06T23:50:06.166Z,60.89
2024-01-06T23:52:34.388Z,60.94
2024-01-06T23:55:02.741Z,61.40
2024-01-06T23:57:31.066Z,61.69
2024-01-06T23:59:59.235Z,61.54
